Surface observations / UK / EGMC

Quebec | Canada | USA | France | UK | Europe | Elsewhere

Display: Info & Location for EGMC | Help decoding METAR

EGMC SOUTHEND-ON-SEA -- UK
Raw surface observations for station EGMC
EGMC 280550Z 05009KT 9000 BKN008 11/09 Q1016=
EGMC 280520Z 05009KT 9000 NSC 11/09 Q1016=
EGMC 280450Z 03005KT 8000 NSC 10/09 Q1016=
EGMC 280420Z 01006KT 8000 NSC 09/08 Q1016=
EGMC 280350Z 01006KT 8000 NSC 09/07 Q1016=
EGMC 280250Z 02004KT 7000 NSC 09/08 Q1016=
EGMC 280150Z 36005KT 9000 NSC 09/08 Q1017=
EGMC 280050Z 36005KT 9000 NSC 10/08 Q1017=
EGMC 272350Z 35005KT 9000 NSC 10/08 Q1017=
EGMC 272250Z 01004KT 9000 NSC 11/09 Q1017=
EGMC 272150Z 01005KT 9000 NSC 11/09 Q1017=
EGMC 272120Z 04005KT 8000 NSC 11/09 Q1017=
EGMC 272050Z 06004KT 8000 NSC 10/09 Q1017=
EGMC 272020Z 06005KT 8000 NSC 12/10 Q1017=
EGMC 271950Z 06006KT 8000 NSC 13/10 Q1017=
EGMC 271920Z 06007KT 8000 NSC 13/10 Q1017=
EGMC 271820Z 07010KT 8000 NSC 14/10 Q1016=
EGMC 271750Z 07011KT 8000 NSC 15/11 Q1016=
EGMC 271720Z 07012KT 8000 NSC 15/11 Q1016=
EGMC 271650Z 07013KT 8000 NSC 16/12 Q1016=
EGMC 271620Z 08013KT 8000 NSC 16/12 Q1016=
EGMC 271550Z 08013KT 8000 NSC 16/11 Q1016=
EGMC 271520Z 08013KT 8000 NSC 17/12 Q1017=
EGMC 271450Z 07012KT 8000 NSC 17/12 Q1017=
EGMC 271420Z 07012KT 8000 NSC 17/12 Q1017=
EGMC 271350Z 08012KT 8000 FEW015 17/12 Q1017=
EGMC 271320Z 08010KT 8000 FEW015 16/12 Q1017=
EGMC 271250Z 08009KT 8000 FEW015 17/12 Q1017=
EGMC 271220Z 07009KT 8000 FEW012 18/13 Q1017=
EGMC 271150Z 07007KT 9000 FEW012 16/12 Q1017=
EGMC 271120Z 06007KT 9000 FEW012 19/12 Q1017=
EGMC 271050Z 07007KT 9999 FEW012 16/11 Q1017=
EGMC 271020Z 06008KT 9999 FEW012 SCT040 16/10 Q1017=
EGMC 270950Z 06009KT 9999 FEW012 SCT040 16/10 Q1017=
EGMC 270920Z 06008KT 9999 FEW015 SCT040 15/10 Q1017=
EGMC 270850Z 04006KT CAVOK 15/09 Q1017=
EGMC 270820Z 03007KT CAVOK 14/10 Q1017=
EGMC 270750Z 04009KT CAVOK 13/08 Q1017=
EGMC 270720Z 04009KT CAVOK 13/09 Q1017=
EGMC 270650Z 03005KT CAVOK 11/08 Q1017=
EGMC 270620Z 04006KT CAVOK 11/08 Q1017=
EGMC 270550Z 04006KT CAVOK 10/08 Q1017=
EGMC 270520Z 02005KT CAVOK 10/08 Q1017=